Time;durP1;ratioP1;P1;durP2;ratioP2;P2;SDS_P1;SDS_P2;PMS_P1;PMS_P2;Temp;Humidity;BMP_temperature;BMP_pressure;BME280_temperature;BME280_humidity;BME280_pressure;Samples;Min_cycle;Max_cycle;Signal;HPM_P1;HPM_P2
2023/07/16 00:02:20;;;;;;;2.58;2.47;;;19.40;99.90;;;19.77;67.08;100597.78;5054654;28;20099;-74
2023/07/16 00:04:48;;;;;;;2.80;2.70;;;19.40;99.90;;;19.75;67.06;100604.16;5050703;28;20036;-74
2023/07/16 00:07:17;;;;;;;2.42;2.33;;;19.40;99.90;;;19.84;67.03;100597.50;5061726;28;20076;-74
2023/07/16 00:09:46;;;;;;;2.83;2.72;;;19.40;99.90;;;19.71;67.09;100610.59;5054401;28;20047;-74
2023/07/16 00:12:15;;;;;;;3.47;3.00;;;19.40;99.90;;;19.72;67.22;100598.94;5053419;28;20409;-74
2023/07/16 00:14:43;;;;;;;2.78;2.67;;;19.30;99.90;;;19.76;67.30;100592.50;5054374;28;20056;-74
2023/07/16 00:17:12;;;;;;;2.67;2.58;;;19.40;99.90;;;19.71;67.59;100608.78;5054319;28;20137;-74
2023/07/16 00:19:40;;;;;;;3.88;3.58;;;19.30;99.90;;;19.64;67.20;100606.47;5054349;28;20049;-74
2023/07/16 00:22:08;;;;;;;3.30;2.83;;;19.30;99.90;;;19.59;67.42;100597.72;5054439;28;20069;-74
2023/07/16 00:24:37;;;;;;;3.03;2.90;;;19.30;99.90;;;19.54;67.39;100595.28;5054475;28;20132;-74
2023/07/16 00:27:06;;;;;;;10.90;3.45;;;19.20;99.90;;;19.64;67.51;100601.09;5054041;28;20045;-73
2023/07/16 00:29:35;;;;;;;3.92;3.60;;;19.20;99.90;;;19.54;67.53;100589.91;5054261;28;20060;-73
2023/07/16 00:32:03;;;;;;;3.03;2.92;;;19.20;99.90;;;19.56;67.58;100597.88;5054052;28;20750;-74
2023/07/16 00:34:32;;;;;;;2.65;2.55;;;19.20;99.90;;;19.56;67.90;100606.81;5054274;28;20075;-73
2023/07/16 00:37:03;;;;;;;3.10;3.00;;;19.20;99.90;;;19.53;67.98;100592.66;5054271;28;20052;-73
2023/07/16 00:39:31;;;;;;;6.10;3.20;;;19.20;99.90;;;19.57;68.14;100604.97;5054178;28;20152;-73
2023/07/16 00:42:00;;;;;;;3.20;3.10;;;19.20;99.90;;;19.60;68.11;100610.22;5052948;28;20128;-73
2023/07/16 00:44:29;;;;;;;3.25;3.05;;;19.20;99.90;;;19.60;68.37;100600.38;5054105;28;20060;-74
2023/07/16 00:46:58;;;;;;;3.37;3.20;;;19.20;99.90;;;19.59;68.38;100603.09;5053931;28;20049;-74
2023/07/16 00:49:26;;;;;;;3.40;3.10;;;19.20;99.90;;;19.59;68.75;100622.75;5052722;28;20455;-74
2023/07/16 00:51:56;;;;;;;4.38;4.05;;;19.20;99.90;;;19.60;68.82;100608.41;5050168;28;20052;-74
2023/07/16 00:54:24;;;;;;;3.47;2.70;;;19.20;99.90;;;19.60;69.03;100615.59;5053488;28;20567;-74
2023/07/16 00:56:53;;;;;;;3.28;3.13;;;19.20;99.90;;;19.57;68.88;100602.28;5053791;28;20091;-74
2023/07/16 00:59:21;;;;;;;4.78;3.95;;;19.20;99.90;;;19.53;69.23;100614.13;5053811;28;20440;-74
2023/07/16 01:01:52;;;;;;;4.18;3.85;;;19.10;99.90;;;19.46;69.45;100612.66;5053723;28;20049;-73
2023/07/16 01:04:20;;;;;;;9.15;4.18;;;19.10;99.90;;;19.45;69.66;100610.91;5053711;28;20065;-74
2023/07/16 01:06:53;;;;;;;3.85;3.65;;;19.00;99.90;;;19.48;69.93;100608.97;5053527;28;20092;-74
2023/07/16 01:09:23;;;;;;;3.08;2.88;;;19.10;99.90;;;19.42;70.11;100613.72;5060554;28;20083;-74
2023/07/16 01:11:52;;;;;;;3.73;3.37;;;19.00;99.90;;;19.47;70.27;100614.41;5048681;28;20048;-73
2023/07/16 01:14:21;;;;;;;2.92;2.83;;;19.10;99.90;;;19.42;70.66;100613.72;5053425;28;20068;-74
2023/07/16 01:16:53;;;;;;;2.85;2.75;;;19.00;99.90;;;19.50;70.42;100615.13;5053492;28;20135;-74
2023/07/16 01:19:23;;;;;;;9.40;7.28;;;19.10;99.90;;;19.49;70.55;100613.38;5052799;28;20049;-74
2023/07/16 01:22:10;;;;;;;6.82;5.93;;;19.10;99.90;;;19.40;70.61;100612.91;5053367;28;20073;-74
2023/07/16 01:25:11;;;;;;;2.90;2.80;;;19.00;99.90;;;19.40;70.86;100612.91;5050465;28;20049;-74
2023/07/16 01:28:07;;;;;;;3.45;3.13;;;19.00;99.90;;;19.33;70.72;100617.72;5051853;28;20063;-73
2023/07/16 01:30:40;;;;;;;3.45;3.28;;;19.00;99.90;;;19.31;70.61;100621.34;5052066;28;20045;-74
2023/07/16 01:33:10;;;;;;;3.42;3.17;;;18.90;99.90;;;19.31;70.70;100599.91;5053287;28;20049;-74
2023/07/16 01:35:39;;;;;;;2.85;2.75;;;18.90;99.90;;;19.27;70.55;100609.00;5049327;28;20041;-74
2023/07/16 01:38:10;;;;;;;3.78;2.67;;;18.90;99.90;;;19.33;70.42;100609.66;5053093;28;20048;-73
2023/07/16 01:40:39;;;;;;;4.55;4.30;;;18.90;99.90;;;19.33;70.25;100604.28;5053114;28;20041;-74
2023/07/16 01:43:07;;;;;;;2.70;2.60;;;18.90;99.90;;;19.37;70.29;100607.72;5052995;28;20067;-74
2023/07/16 01:45:37;;;;;;;2.95;2.85;;;19.00;99.90;;;19.31;70.30;100605.25;5052746;28;20135;-72
2023/07/16 01:48:16;;;;;;;6.37;4.80;;;18.90;99.90;;;19.28;70.20;100610.78;5052927;28;20049;-74
2023/07/16 01:50:44;;;;;;;3.10;3.00;;;18.90;99.90;;;19.30;70.47;100616.94;5049628;28;20734;-73
2023/07/16 01:53:12;;;;;;;4.10;3.60;;;18.90;99.90;;;19.37;70.39;100618.44;5052976;28;20162;-73
2023/07/16 01:55:41;;;;;;;5.15;4.72;;;19.00;99.90;;;19.38;70.48;100617.47;5052837;28;20444;-73
2023/07/16 01:58:09;;;;;;;4.38;4.18;;;19.00;99.90;;;19.33;70.66;100612.34;5051588;28;20400;-74
2023/07/16 02:00:39;;;;;;;4.10;3.90;;;19.00;99.90;;;19.32;70.85;100621.31;5050304;28;20099;-74
2023/07/16 02:03:08;;;;;;;4.13;3.78;;;18.90;99.90;;;19.32;70.75;100607.00;5052832;28;20123;-73
2023/07/16 02:05:36;;;;;;;20.27;9.05;;;18.90;99.90;;;19.20;71.15;100576.22;5051462;28;20464;-74
2023/07/16 02:08:06;;;;;;;3.28;2.90;;;19.00;99.90;;;19.26;71.06;100618.84;5051405;28;20049;-74
2023/07/16 02:10:34;;;;;;;3.53;3.33;;;18.90;99.90;;;19.34;71.31;100597.09;5064207;28;20064;-74
2023/07/16 02:13:02;;;;;;;8.23;6.05;;;19.00;99.90;;;19.30;71.20;100620.47;5049412;28;20055;-74
2023/07/16 02:15:31;;;;;;;4.18;3.85;;;18.90;99.90;;;19.22;71.38;100603.84;5052666;28;20055;-74
2023/07/16 02:18:01;;;;;;;4.25;4.05;;;18.90;99.90;;;19.23;71.46;100624.38;5052858;28;20501;-74
2023/07/16 02:20:29;;;;;;;9.75;5.43;;;18.80;99.90;;;19.24;71.31;100607.31;5052710;28;20394;-73
2023/07/16 02:22:58;;;;;;;4.22;3.80;;;18.80;99.90;;;19.11;71.67;100571.28;5052549;28;20048;-74
2023/07/16 02:25:28;;;;;;;3.47;3.28;;;18.90;99.90;;;19.34;71.61;100602.47;5052581;28;20456;-74
2023/07/16 02:27:56;;;;;;;3.90;3.65;;;18.90;99.90;;;19.25;71.72;100609.09;5052290;28;20440;-73
2023/07/16 02:30:24;;;;;;;3.72;3.53;;;18.90;99.90;;;19.20;72.04;100596.81;5053216;28;20057;-74
2023/07/16 02:32:53;;;;;;;3.33;3.00;;;18.80;99.90;;;19.12;72.42;100612.38;5055267;28;20049;-73
2023/07/16 02:35:22;;;;;;;3.47;3.20;;;18.70;99.90;;;19.21;72.65;100615.53;5052740;28;20045;-74
2023/07/16 02:37:51;;;;;;;3.87;3.63;;;18.80;99.90;;;19.22;72.45;100616.41;5056545;28;20432;-74
2023/07/16 02:40:20;;;;;;;3.95;3.65;;;18.90;99.90;;;19.25;72.84;100626.97;5056393;28;20036;-74
2023/07/16 02:42:48;;;;;;;3.00;2.90;;;18.80;99.90;;;19.23;72.94;100628.84;5056349;28;20053;-74
2023/07/16 02:45:16;;;;;;;5.35;4.20;;;18.80;99.90;;;19.15;72.96;100614.91;5056072;28;20052;-74
2023/07/16 02:47:45;;;;;;;3.05;2.95;;;18.80;99.90;;;19.20;73.12;100623.63;5054967;28;20504;-74
2023/07/16 02:50:13;;;;;;;3.40;3.20;;;18.80;99.90;;;19.24;73.16;100614.53;5056319;28;20045;-74
2023/07/16 02:52:43;;;;;;;3.67;3.38;;;18.80;99.90;;;19.21;73.08;100617.31;5054905;28;20044;-73
2023/07/16 02:55:11;;;;;;;4.83;4.40;;;18.80;99.90;;;19.14;73.32;100605.13;5056173;28;20482;-74
2023/07/16 02:57:40;;;;;;;2.58;2.47;;;18.80;99.90;;;19.21;73.83;100617.31;5054908;28;20049;-74
2023/07/16 03:00:10;;;;;;;3.83;3.05;;;18.80;99.90;;;19.08;74.09;100619.69;5051123;28;20067;-74
2023/07/16 03:02:38;;;;;;;3.00;2.90;;;18.70;99.90;;;19.08;74.43;100627.72;5054733;28;20136;-74
2023/07/16 03:05:08;;;;;;;3.88;3.58;;;18.70;99.90;;;19.04;74.01;100633.28;5055670;28;20287;-74
2023/07/16 03:07:36;;;;;;;3.92;3.72;;;18.70;99.90;;;18.99;74.21;100628.09;5055814;28;20049;-74
2023/07/16 03:10:07;;;;;;;2.88;2.78;;;18.60;99.90;;;19.00;74.45;100632.53;5055688;28;20119;-74
2023/07/16 03:12:35;;;;;;;3.47;3.17;;;18.60;99.90;;;18.99;74.49;100646.88;5054615;28;20577;-75
2023/07/16 03:15:05;;;;;;;2.97;2.88;;;18.60;99.90;;;18.99;74.49;100649.53;5054326;28;20060;-73
2023/07/16 03:17:34;;;;;;;2.85;2.75;;;18.60;99.90;;;18.92;74.87;100635.56;5071238;28;20045;-74
2023/07/16 03:20:04;;;;;;;3.58;3.08;;;18.60;99.90;;;18.23;75.37;100523.25;5051981;28;20037;-74
2023/07/16 03:22:32;;;;;;;3.00;2.80;;;18.50;99.90;;;18.82;75.75;100658.31;5054416;28;20045;-74
2023/07/16 03:25:03;;;;;;;3.28;3.17;;;18.40;99.90;;;18.81;76.01;100635.09;5054408;28;20491;-74
2023/07/16 03:27:33;;;;;;;3.35;3.15;;;18.50;99.90;;;18.75;76.20;100647.91;5054194;28;20053;-74
2023/07/16 03:30:02;;;;;;;3.85;3.65;;;18.40;99.90;;;18.80;76.38;100649.47;5055725;28;20094;-74
2023/07/16 03:32:30;;;;;;;3.90;3.70;;;18.50;99.90;;;18.77;76.42;100665.69;5054179;28;20052;-73
2023/07/16 03:35:13;;;;;;;3.88;3.58;;;18.40;99.90;;;18.71;76.63;100638.25;5051538;28;20405;-74
2023/07/16 03:37:42;;;;;;;4.43;3.30;;;18.40;99.90;;;18.74;77.02;100647.03;5055109;28;20466;-74
2023/07/16 03:40:15;;;;;;;4.22;3.88;;;18.40;99.90;;;18.56;77.48;100636.22;5052707;28;20091;-74
2023/07/16 03:42:47;;;;;;;3.00;2.90;;;18.30;99.90;;;18.81;77.71;100678.00;5066757;28;20514;-74
2023/07/16 03:45:15;;;;;;;3.47;3.27;;;18.40;99.90;;;18.66;77.71;100656.34;5055279;28;20405;-74
2023/07/16 03:47:44;;;;;;;4.00;3.80;;;18.30;99.90;;;18.72;77.81;100673.00;5066896;28;20094;-73
2023/07/16 03:50:13;;;;;;;4.10;3.72;;;18.30;99.90;;;18.71;77.86;100673.09;5053881;28;20126;-73
2023/07/16 03:52:41;;;;;;;4.50;4.15;;;18.30;99.90;;;18.72;77.83;100672.13;5055081;28;20041;-74
2023/07/16 03:55:10;;;;;;;3.45;3.25;;;18.30;99.90;;;18.66;77.87;100678.63;5055086;28;20548;-74
2023/07/16 03:57:39;;;;;;;5.15;3.88;;;18.30;99.90;;;18.70;77.82;100680.25;5052347;28;20566;-74
2023/07/16 04:00:11;;;;;;;3.80;3.58;;;18.30;99.90;;;18.65;77.46;100692.97;5053691;28;20048;-74
2023/07/16 04:02:42;;;;;;;3.67;3.25;;;18.30;99.90;;;18.66;77.58;100704.56;5054924;28;20119;-74
2023/07/16 04:05:17;;;;;;;3.63;3.40;;;18.30;99.90;;;18.58;77.49;100678.06;5050509;28;20051;-73
2023/07/16 04:07:47;;;;;;;3.15;2.97;;;18.20;99.90;;;18.67;77.51;100707.19;5054830;28;20056;-74
2023/07/16 04:10:15;;;;;;;3.45;3.28;;;18.30;99.90;;;18.67;77.46;100692.91;5054464;28;20489;-74
2023/07/16 04:12:44;;;;;;;3.60;3.40;;;18.30;99.90;;;18.69;77.20;100688.34;5054435;28;20142;-75
2023/07/16 04:15:14;;;;;;;6.72;4.03;;;18.30;99.90;;;18.67;77.01;100714.34;5054390;28;20052;-74
2023/07/16 04:17:42;;;;;;;3.50;3.38;;;18.30;99.90;;;18.68;77.05;100700.88;5054653;28;20037;-74
2023/07/16 04:20:11;;;;;;;3.95;3.65;;;18.30;99.90;;;18.77;76.78;100699.63;5054314;28;20051;-74
2023/07/16 04:22:40;;;;;;;3.92;3.72;;;18.40;99.90;;;18.77;76.77;100694.28;5050347;28;20387;-74
2023/07/16 04:25:09;;;;;;;3.92;3.63;;;18.40;99.90;;;18.78;77.06;100683.50;5069820;28;20497;-74
2023/07/16 04:27:40;;;;;;;3.70;3.50;;;18.40;99.90;;;18.75;77.33;100706.88;5053138;28;20486;-74
2023/07/16 04:30:09;;;;;;;;;;;18.40;99.90;;;18.81;77.03;100686.03;5051641;28;20454;-74
2023/07/16 04:32:38;;;;;;;3.38;3.25;;;18.40;99.90;;;18.86;76.63;100712.66;5053961;28;19925;-74
2023/07/16 04:35:08;;;;;;;6.97;5.20;;;18.40;99.90;;;18.82;76.16;100701.19;5054012;28;20041;-74
2023/07/16 04:37:36;;;;;;;3.80;3.50;;;18.50;99.90;;;18.73;76.21;100725.69;5053917;28;20378;-74
2023/07/16 04:40:06;;;;;;;4.95;4.63;;;18.40;99.90;;;18.75;75.44;100707.75;5053910;28;20128;-73
2023/07/16 04:42:35;;;;;;;6.80;4.57;;;18.40;99.90;;;18.71;74.54;100726.69;5050401;28;20048;-74
2023/07/16 04:45:05;;;;;;;7.28;3.63;;;18.40;99.90;;;18.81;74.56;100722.72;5054003;28;20071;-74
2023/07/16 04:47:33;;;;;;;4.33;4.00;;;18.40;99.90;;;18.64;73.76;100715.31;5053775;28;20410;-73
2023/07/16 04:50:03;;;;;;;3.45;3.25;;;18.30;99.90;;;18.76;73.67;100722.88;5053676;28;20052;-74
2023/07/16 04:52:31;;;;;;;3.72;3.47;;;18.40;99.90;;;18.74;72.91;100732.78;5053950;28;20052;-74
2023/07/16 04:55:00;;;;;;;4.05;3.65;;;18.40;99.90;;;18.76;72.51;100722.88;5052876;28;20127;-74
2023/07/16 04:57:28;;;;;;;3.33;3.15;;;18.40;99.90;;;18.81;71.79;100710.16;5053810;28;20126;-74
2023/07/16 04:59:57;;;;;;;4.72;4.35;;;18.40;99.90;;;18.73;71.28;100728.38;5053443;28;20098;-74
2023/07/16 05:02:25;;;;;;;4.07;3.78;;;18.40;99.90;;;18.80;71.57;100739.69;5053538;28;20494;-74
2023/07/16 05:04:53;;;;;;;3.65;3.42;;;18.40;99.90;;;18.83;71.04;100726.19;5053467;28;20053;-74
2023/07/16 05:07:23;;;;;;;4.47;3.55;;;18.50;99.90;;;18.88;71.60;100759.03;5049640;28;20112;-73
2023/07/16 05:09:51;;;;;;;3.80;3.50;;;18.50;99.90;;;18.92;71.25;100740.09;5053413;28;20037;-74
2023/07/16 05:12:19;;;;;;;3.63;3.42;;;18.50;99.90;;;18.96;71.22;100745.31;5053303;28;20456;-73
2023/07/16 05:14:49;;;;;;;3.72;3.42;;;18.60;99.90;;;19.08;71.35;100761.78;5052222;28;20094;-74
2023/07/16 05:17:17;;;;;;;3.08;2.97;;;18.60;99.90;;;19.03;71.48;100745.00;5053178;28;20049;-74
2023/07/16 05:19:46;;;;;;;4.25;3.92;;;18.70;99.90;;;19.09;72.04;100755.47;5053430;28;20045;-74
2023/07/16 05:22:14;;;;;;;3.50;3.30;;;18.70;99.90;;;19.05;71.86;100747.66;5053406;28;20049;-74
2023/07/16 05:24:44;;;;;;;3.90;3.65;;;18.70;99.90;;;19.08;72.83;100767.16;5053298;28;20045;-74
2023/07/16 05:27:13;;;;;;;6.68;3.92;;;18.70;99.90;;;19.14;73.15;100728.50;5053347;28;20103;-74
2023/07/16 05:29:41;;;;;;;3.25;2.95;;;18.70;99.90;;;19.21;73.19;100751.41;5049216;28;20441;-73
2023/07/16 05:32:09;;;;;;;3.50;3.30;;;18.80;99.90;;;19.20;73.21;100738.97;5052883;28;20521;-74
2023/07/16 05:34:38;;;;;;;4.60;3.95;;;18.80;99.90;;;19.14;73.33;100758.88;5052978;28;20068;-73
2023/07/16 05:37:07;;;;;;;4.35;3.95;;;18.80;99.90;;;19.07;73.16;100764.50;5053171;28;20137;-73
2023/07/16 05:39:35;;;;;;;3.78;3.58;;;18.70;99.90;;;19.08;73.61;100761.78;5052846;28;20056;-74
2023/07/16 05:42:06;;;;;;;6.88;5.47;;;18.70;99.90;;;19.12;73.24;100775.94;5052816;28;20087;-74
2023/07/16 05:44:34;;;;;;;3.80;3.60;;;18.70;99.90;;;19.03;72.86;100769.13;5052805;28;20045;-73
2023/07/16 05:47:03;;;;;;;4.40;4.10;;;18.70;99.90;;;19.06;73.30;100771.72;5052966;28;20091;-74
2023/07/16 05:49:31;;;;;;;2.72;2.63;;;18.60;99.90;;;19.13;73.16;100775.88;5052646;28;20037;-74
2023/07/16 05:52:00;;;;;;;7.13;4.40;;;18.70;99.90;;;19.14;72.86;100764.22;5052574;28;20035;-73
2023/07/16 05:54:28;;;;;;;3.50;3.38;;;18.70;99.90;;;19.16;72.76;100796.34;5048813;28;20055;-74
2023/07/16 05:56:56;;;;;;;3.67;3.47;;;18.80;99.90;;;19.17;72.32;100776.63;5052844;28;20033;-74
2023/07/16 05:59:26;;;;;;;4.15;3.95;;;18.80;99.90;;;19.17;71.65;100790.91;5048920;28;20050;-73
2023/07/16 06:01:57;;;;;;;5.70;3.93;;;18.80;99.90;;;19.24;71.29;100781.66;5052800;28;20083;-73
2023/07/16 06:04:26;;;;;;;3.63;3.42;;;18.90;99.90;;;19.24;70.55;100792.38;5052535;28;20041;-73
2023/07/16 06:06:54;;;;;;;4.93;4.38;;;18.90;99.90;;;19.27;69.99;100769.94;5052603;28;20087;-74
2023/07/16 06:09:22;;;;;;;3.60;3.40;;;18.90;99.90;;;19.30;69.78;100783.25;5052359;28;20075;-74
2023/07/16 06:11:51;;;;;;;3.08;2.97;;;18.90;99.90;;;19.35;69.92;100802.72;5052578;28;20049;-74
2023/07/16 06:14:19;;;;;;;7.03;4.13;;;19.00;99.90;;;19.39;69.99;100796.31;5051379;28;20076;-74
2023/07/16 06:16:49;;;;;;;4.05;3.75;;;19.00;99.90;;;19.43;70.55;100797.91;5048477;28;20441;-74
2023/07/16 06:19:17;;;;;;;3.83;3.63;;;19.00;99.90;;;19.42;70.98;100794.34;5052379;28;20055;-74
2023/07/16 06:21:46;;;;;;;3.90;3.70;;;19.10;99.90;;;19.54;71.52;100807.25;5052329;28;20076;-74
2023/07/16 06:24:14;;;;;;;3.88;3.60;;;19.10;99.90;;;19.57;71.88;100800.88;5052301;28;20162;-74
2023/07/16 06:26:44;;;;;;;4.18;3.88;;;19.20;99.90;;;19.45;71.63;100796.03;5052691;28;20049;-73
2023/07/16 06:29:13;;;;;;;5.18;4.68;;;19.10;99.90;;;19.48;72.20;100793.22;5052236;28;20084;-74
2023/07/16 06:31:44;;;;;;;3.60;3.40;;;19.10;99.90;;;18.97;72.37;100704.19;5052174;28;20044;-74
2023/07/16 06:34:14;;;;;;;4.78;3.30;;;19.20;99.90;;;19.74;72.33;100828.75;5052235;28;20047;-73
2023/07/16 06:36:42;;;;;;;4.20;3.80;;;19.30;99.90;;;19.82;71.71;100824.88;5048433;28;20045;-72
2023/07/16 06:39:10;;;;;;;3.78;3.47;;;19.40;99.90;;;19.89;71.36;100818.28;5052130;28;20310;-73
2023/07/16 06:41:39;;;;;;;3.67;3.47;;;19.50;99.90;;;19.93;71.44;100842.28;5052120;28;20049;-73
2023/07/16 06:44:09;;;;;;;3.05;2.85;;;19.60;99.90;;;19.86;71.15;100830.03;5051109;28;20102;-73
2023/07/16 06:46:37;;;;;;;2.67;2.58;;;19.50;99.90;;;19.89;71.03;100839.78;5052607;28;20079;-74
2023/07/16 06:49:07;;;;;;;4.60;3.90;;;19.50;99.90;;;19.78;71.00;100841.09;5051096;28;20517;-74
2023/07/16 06:51:36;;;;;;;7.35;5.78;;;19.40;99.90;;;19.84;71.41;100842.66;5051972;28;20114;-73
2023/07/16 06:54:05;;;;;;;2.93;2.83;;;19.40;99.90;;;19.92;71.61;100853.94;5052344;28;20102;-72
2023/07/16 06:56:33;;;;;;;3.90;3.58;;;19.50;99.90;;;19.79;70.90;100845.53;5052569;28;20524;-73
2023/07/16 06:59:01;;;;;;;3.05;2.95;;;19.40;99.90;;;19.90;71.34;100842.38;5048145;28;20472;-73
2023/07/16 07:01:30;;;;;;;4.40;4.10;;;19.50;99.90;;;19.95;71.23;100855.63;5048463;28;20049;-73
2023/07/16 07:03:58;;;;;;;3.25;3.13;;;19.50;99.90;;;20.01;71.14;100850.88;5050915;28;20057;-73
2023/07/16 07:06:26;;;;;;;7.80;3.45;;;19.60;99.90;;;19.97;70.16;100857.31;5052086;28;20052;-73
2023/07/16 07:08:56;;;;;;;4.05;3.75;;;19.60;99.90;;;20.13;70.12;100850.31;5051840;28;20045;-74
2023/07/16 07:11:25;;;;;;;2.90;2.80;;;19.70;99.90;;;20.10;69.99;100863.91;5051794;28;20049;-74
2023/07/16 07:13:53;;;;;;;4.75;3.45;;;19.70;99.90;;;20.10;69.71;100863.91;5052088;28;20290;-74
2023/07/16 07:16:22;;;;;;;2.75;2.63;;;19.80;99.90;;;20.02;69.69;100862.47;5052082;28;20051;-73
2023/07/16 07:18:51;;;;;;;4.03;3.72;;;19.60;99.90;;;20.00;70.23;100862.53;5054477;28;20052;-74
2023/07/16 07:21:21;;;;;;;3.17;3.00;;;19.60;99.90;;;19.87;70.51;100872.06;5055660;28;20044;-74
2023/07/16 07:23:49;;;;;;;5.47;4.10;;;19.50;99.90;;;19.80;70.80;100875.97;5051699;28;20147;-74
2023/07/16 07:26:19;;;;;;;4.40;3.58;;;19.40;99.90;;;19.70;71.00;100872.75;5055232;28;20128;-73
2023/07/16 07:28:47;;;;;;;3.67;3.47;;;19.30;99.90;;;19.72;71.41;100862.81;5055400;28;20143;-73
2023/07/16 07:31:16;;;;;;;3.78;3.58;;;19.30;99.90;;;19.70;71.81;100870.06;5055288;28;20079;-74
2023/07/16 07:33:44;;;;;;;5.68;3.83;;;19.30;99.90;;;19.76;71.59;100874.34;5055124;28;20552;-73
2023/07/16 07:36:13;;;;;;;3.50;3.30;;;19.40;99.90;;;19.80;71.80;100875.97;5055394;28;20044;-73
2023/07/16 07:38:41;;;;;;;4.15;3.85;;;19.40;99.90;;;19.76;72.21;100861.75;5055322;28;20080;-74
2023/07/16 07:41:10;;;;;;;3.15;3.05;;;19.50;99.90;;;19.93;72.84;100870.94;5055005;28;20049;-73
2023/07/16 07:43:40;;;;;;;4.07;3.88;;;19.50;99.90;;;19.08;72.35;100763.59;5053955;28;20051;-73
2023/07/16 07:46:08;;;;;;;3.97;3.77;;;19.50;99.90;;;19.83;72.41;100883.00;5051143;28;20040;-73
2023/07/16 07:48:36;;;;;;;4.55;4.25;;;19.40;99.90;;;19.92;72.60;100902.28;5054933;28;20313;-74
2023/07/16 07:51:05;;;;;;;4.10;3.83;;;19.50;99.90;;;20.06;72.61;100881.06;5054759;28;20053;-73
2023/07/16 07:53:33;;;;;;;4.25;4.05;;;19.60;99.90;;;20.02;72.10;100925.13;5054970;28;20044;-74
2023/07/16 07:56:01;;;;;;;3.90;3.60;;;19.70;99.90;;;19.96;71.57;100903.88;5054745;28;20083;-73
2023/07/16 07:58:30;;;;;;;3.50;3.30;;;19.60;99.90;;;20.15;71.65;100898.63;5054834;28;20102;-73
2023/07/16 08:01:06;;;;;;;4.05;3.75;;;19.70;99.90;;;20.23;71.31;100909.91;5054924;28;20057;-74
2023/07/16 08:03:35;;;;;;;3.55;3.25;;;19.80;99.90;;;20.21;71.55;100920.75;5055005;28;20040;-73
2023/07/16 08:06:04;;;;;;;4.10;3.80;;;19.80;99.90;;;20.29;71.41;100912.34;5051299;28;20052;-73
2023/07/16 08:08:32;;;;;;;3.60;3.30;;;19.90;99.90;;;19.96;71.31;100903.88;5054561;28;20079;-73
2023/07/16 08:11:01;;;;;;;3.58;3.28;;;19.60;99.90;;;19.98;72.13;100917.25;5054346;28;20486;-73
2023/07/16 08:13:29;;;;;;;2.92;2.83;;;19.60;99.90;;;20.03;71.79;100921.50;5054429;28;20045;-74
2023/07/16 08:15:58;;;;;;;7.55;4.35;;;19.60;99.90;;;20.16;72.19;100928.09;5054251;28;20116;-73
2023/07/16 08:18:27;;;;;;;2.70;2.60;;;19.70;99.90;;;20.15;71.35;100914.75;5054237;28;20094;-74
2023/07/16 08:20:55;;;;;;;3.60;3.40;;;19.80;99.90;;;20.13;70.27;100925.53;5054489;28;20417;-74
2023/07/16 08:23:24;;;;;;;3.03;2.92;;;19.80;99.90;;;20.14;70.79;100921.03;5054233;28;20073;-74
2023/07/16 08:25:52;;;;;;;2.70;2.60;;;19.80;99.90;;;20.19;71.64;100925.31;5054351;28;20500;-74
2023/07/16 08:28:20;;;;;;;3.47;3.28;;;19.80;99.90;;;20.20;71.89;100924.38;5053782;28;20063;-73
2023/07/16 08:30:49;;;;;;;5.65;3.95;;;19.80;99.90;;;20.00;70.81;100908.19;5050029;28;20084;-73
2023/07/16 08:33:18;;;;;;;4.22;3.83;;;19.70;99.90;;;20.07;71.22;100941.94;5050471;28;20041;-73
2023/07/16 08:35:47;;;;;;;3.03;2.93;;;19.70;99.90;;;20.15;71.16;100937.09;5054255;28;20060;-73
2023/07/16 08:38:15;;;;;;;4.00;3.70;;;19.80;99.90;;;20.09;70.74;100956.13;5054234;28;20041;-73
2023/07/16 08:40:48;;;;;;;3.05;2.95;;;19.70;99.90;;;20.01;70.97;100938.63;5054010;28;20084;-73
2023/07/16 08:43:18;;;;;;;3.42;3.22;;;19.60;99.90;;;19.96;71.39;100952.22;5054154;28;20393;-73
2023/07/16 08:45:47;;;;;;;;;;;19.60;99.90;;;20.08;71.96;100970.53;5054198;28;20059;-73
2023/07/16 08:48:18;;;;;;;3.08;2.97;;;19.60;99.90;;;20.16;71.51;100960.34;5053719;28;19976;-73
2023/07/16 08:50:49;;;;;;;5.13;4.65;;;19.80;99.90;;;20.19;70.81;100964.75;5050120;28;20041;-73
2023/07/16 08:53:18;;;;;;;3.97;3.75;;;19.80;99.90;;;20.16;70.70;100965.72;5053587;28;20041;-74
2023/07/16 08:55:47;;;;;;;4.53;3.58;;;19.80;99.90;;;20.23;71.32;100961.84;5053797;28;20045;-74
2023/07/16 08:58:23;;;;;;;4.47;4.07;;;19.80;99.90;;;20.25;70.46;100959.09;5053859;28;20045;-74
2023/07/16 09:00:53;;;;;;;3.65;3.45;;;19.80;99.90;;;20.26;69.87;100953.66;5053339;28;20474;-73
2023/07/16 09:03:22;;;;;;;3.42;3.05;;;19.90;99.90;;;20.38;70.66;100950.44;5049489;28;20541;-73
2023/07/16 09:05:51;;;;;;;3.50;3.30;;;20.00;99.90;;;20.29;70.03;100956.22;5053619;28;20048;-73
2023/07/16 09:08:19;;;;;;;2.85;2.75;;;20.00;99.90;;;20.33;69.31;100968.56;5053230;28;20761;-73
2023/07/16 09:10:55;;;;;;;3.10;2.92;;;19.90;99.90;;;20.41;69.50;100969.13;5053386;28;20080;-74
2023/07/16 09:13:26;;;;;;;5.05;3.78;;;20.00;99.90;;;20.35;68.46;100966.69;5053216;28;20041;-74
2023/07/16 09:15:56;;;;;;;2.92;2.83;;;20.00;99.90;;;20.29;68.37;100963.38;5053143;28;20445;-73
2023/07/16 09:18:28;;;;;;;3.90;3.55;;;19.90;99.90;;;20.23;68.81;100969.91;5049341;28;20131;-72
2023/07/16 09:20:57;;;;;;;4.88;4.45;;;19.90;99.90;;;20.32;69.17;100977.59;5053081;28;20397;-74
2023/07/16 09:23:27;;;;;;;10.23;3.38;;;19.90;99.90;;;20.32;69.16;100969.53;5053029;28;20383;-73
2023/07/16 09:25:56;;;;;;;3.28;3.00;;;19.90;99.90;;;20.47;69.30;100976.94;5053197;28;20115;-73
2023/07/16 09:28:24;;;;;;;4.22;3.17;;;20.00;99.90;;;20.45;68.97;100972.56;5053076;28;20103;-74
2023/07/16 09:30:53;;;;;;;3.22;3.13;;;20.00;99.90;;;20.50;69.25;100989.34;5052901;28;20571;-74
2023/07/16 09:33:25;;;;;;;3.97;3.67;;;20.10;99.90;;;20.12;68.87;100926.47;5053124;28;20041;-74
2023/07/16 09:35:55;;;;;;;3.42;3.25;;;20.10;99.90;;;20.49;68.69;100982.22;5049696;28;20033;-74
2023/07/16 09:38:25;;;;;;;12.90;3.47;;;20.10;99.90;;;20.48;67.63;100986.72;5053413;28;20431;-74
2023/07/16 09:40:56;;;;;;;63.35;5.68;;;20.10;99.90;;;20.53;66.83;101000.84;5052192;28;20288;-74
2023/07/16 09:43:24;;;;;;;2.92;2.83;;;20.20;99.90;;;20.80;68.16;100989.81;5052588;28;20073;-73
2023/07/16 09:45:53;;;;;;;2.60;2.50;;;20.30;99.90;;;21.14;68.42;100995.44;5052906;28;20436;-73
2023/07/16 09:48:21;;;;;;;4.55;3.55;;;20.70;99.90;;;21.32;67.41;100990.13;5051533;28;20048;-73
2023/07/16 09:50:53;;;;;;;3.58;3.25;;;20.90;99.90;;;21.31;65.44;101014.41;5053184;28;20079;-73
2023/07/16 09:53:25;;;;;;;9.63;4.03;;;21.00;99.90;;;21.14;65.45;101027.72;5048988;28;20053;-74
2023/07/16 09:55:57;;;;;;;4.78;4.28;;;20.80;99.90;;;21.19;65.44;101010.47;5064775;28;20048;-73
2023/07/16 09:58:27;;;;;;;4.78;3.63;;;20.80;99.90;;;21.05;64.99;101041.59;5052429;28;20078;-74
2023/07/16 10:00:56;;;;;;;14.30;3.85;;;20.70;99.90;;;21.14;62.14;101006.22;5052611;28;20160;-73
2023/07/16 10:03:24;;;;;;;5.78;3.47;;;20.70;99.90;;;21.39;62.26;101001.44;5052449;28;20045;-73
2023/07/16 10:05:53;;;;;;;3.30;3.10;;;21.00;99.90;;;21.53;60.68;101034.88;5052363;28;20466;-72
2023/07/16 10:08:23;;;;;;;4.43;3.13;;;21.10;99.90;;;21.67;60.10;101031.53;5052553;28;20521;-73
2023/07/16 10:10:56;;;;;;;3.05;2.85;;;21.20;99.90;;;21.63;59.42;101003.00;5052282;28;20526;-73
2023/07/16 10:13:25;;;;;;;3.20;2.95;;;21.30;99.90;;;21.83;59.82;101035.28;5049760;28;20504;-74
2023/07/16 10:15:55;;;;;;;16.10;3.50;;;21.40;99.90;;;22.02;58.74;101036.13;5052194;28;20049;-73
2023/07/16 10:18:27;;;;;;;3.50;3.20;;;21.60;99.90;;;22.23;58.34;101075.50;5050288;28;20050;-73
2023/07/16 10:21:01;;;;;;;3.10;3.00;;;21.80;99.90;;;22.48;59.03;101032.00;5052370;28;20037;-73
2023/07/16 10:23:40;;;;;;;2.92;2.72;;;22.00;99.90;;;22.63;59.33;101041.19;5048756;28;20131;-73